sensor_id;sensor_type;location;lat;lon;timestamp;temperature;humidity
26691;DHT22;14307;51.718;8.938;2022-10-16T00:00:48;12.80;99.90
26691;DHT22;14307;51.718;8.938;2022-10-16T00:03:15;12.80;99.90
26691;DHT22;14307;51.718;8.938;2022-10-16T00:05:42;12.80;99.90
26691;DHT22;14307;51.718;8.938;2022-10-16T00:08:11;12.80;99.90
26691;DHT22;14307;51.718;8.938;2022-10-16T00:10:39;12.90;99.90
26691;DHT22;14307;51.718;8.938;2022-10-16T00:13:06;12.90;99.90
26691;DHT22;14307;51.718;8.938;2022-10-16T00:15:35;12.90;99.90
26691;DHT22;14307;51.718;8.938;2022-10-16T00:18:06;13.00;99.90
26691;DHT22;14307;51.718;8.938;2022-10-16T00:20:34;13.00;99.90
26691;DHT22;14307;51.718;8.938;2022-10-16T00:23:01;13.00;99.90
26691;DHT22;14307;51.718;8.938;2022-10-16T00:25:27;13.00;99.90
26691;DHT22;14307;51.718;8.938;2022-10-16T00:27:54;13.10;99.90
26691;DHT22;14307;51.718;8.938;2022-10-16T00:30:21;13.10;99.90
26691;DHT22;14307;51.718;8.938;2022-10-16T00:32:48;13.10;99.90
26691;DHT22;14307;51.718;8.938;2022-10-16T00:35:14;13.00;99.90
26691;DHT22;14307;51.718;8.938;2022-10-16T00:37:41;12.90;99.90
26691;DHT22;14307;51.718;8.938;2022-10-16T00:40:08;12.90;99.90
26691;DHT22;14307;51.718;8.938;2022-10-16T00:42:35;12.80;99.90
26691;DHT22;14307;51.718;8.938;2022-10-16T00:45:03;12.80;99.90
26691;DHT22;14307;51.718;8.938;2022-10-16T00:47:37;12.70;99.90
26691;DHT22;14307;51.718;8.938;2022-10-16T00:52:39;12.50;99.90
26691;DHT22;14307;51.718;8.938;2022-10-16T00:55:09;12.40;99.90
26691;DHT22;14307;51.718;8.938;2022-10-16T00:57:36;12.30;99.90
26691;DHT22;14307;51.718;8.938;2022-10-16T01:00:06;12.20;99.90
26691;DHT22;14307;51.718;8.938;2022-10-16T01:02:33;12.30;99.90
26691;DHT22;14307;51.718;8.938;2022-10-16T01:05:01;12.50;99.90
26691;DHT22;14307;51.718;8.938;2022-10-16T01:10:20;12.30;99.90
26691;DHT22;14307;51.718;8.938;2022-10-16T01:13:05;12.30;99.90
26691;DHT22;14307;51.718;8.938;2022-10-16T01:18:16;12.20;99.90
26691;DHT22;14307;51.718;8.938;2022-10-16T01:23:21;12.20;99.90
26691;DHT22;14307;51.718;8.938;2022-10-16T01:28:44;12.10;99.90
26691;DHT22;14307;51.718;8.938;2022-10-16T01:31:15;12.10;99.90
26691;DHT22;14307;51.718;8.938;2022-10-16T01:33:54;12.10;99.90
26691;DHT22;14307;51.718;8.938;2022-10-16T01:36:27;12.00;99.90
26691;DHT22;14307;51.718;8.938;2022-10-16T01:38:59;11.90;99.90
26691;DHT22;14307;51.718;8.938;2022-10-16T01:41:31;11.90;99.90
26691;DHT22;14307;51.718;8.938;2022-10-16T01:44:09;11.90;99.90
26691;DHT22;14307;51.718;8.938;2022-10-16T01:46:38;11.70;99.90
26691;DHT22;14307;51.718;8.938;2022-10-16T01:49:06;11.80;99.90
26691;DHT22;14307;51.718;8.938;2022-10-16T01:51:36;11.80;99.90
26691;DHT22;14307;51.718;8.938;2022-10-16T01:54:05;11.80;99.90
26691;DHT22;14307;51.718;8.938;2022-10-16T01:56:34;11.80;99.90
26691;DHT22;14307;51.718;8.938;2022-10-16T01:59:05;11.80;99.90
26691;DHT22;14307;51.718;8.938;2022-10-16T02:01:35;11.90;99.90
26691;DHT22;14307;51.718;8.938;2022-10-16T02:04:15;11.90;99.90
26691;DHT22;14307;51.718;8.938;2022-10-16T02:06:43;12.00;99.90
26691;DHT22;14307;51.718;8.938;2022-10-16T02:09:12;12.00;99.90
26691;DHT22;14307;51.718;8.938;2022-10-16T02:11:39;11.90;99.90
26691;DHT22;14307;51.718;8.938;2022-10-16T02:14:06;12.00;99.90
26691;DHT22;14307;51.718;8.938;2022-10-16T02:16:42;11.90;99.90
26691;DHT22;14307;51.718;8.938;2022-10-16T02:19:12;12.00;99.90
26691;DHT22;14307;51.718;8.938;2022-10-16T02:21:56;11.90;99.90
26691;DHT22;14307;51.718;8.938;2022-10-16T02:24:47;11.90;99.90
26691;DHT22;14307;51.718;8.938;2022-10-16T02:30:06;12.00;99.90
26691;DHT22;14307;51.718;8.938;2022-10-16T02:32:37;12.00;99.90
26691;DHT22;14307;51.718;8.938;2022-10-16T02:35:06;11.90;99.90
26691;DHT22;14307;51.718;8.938;2022-10-16T02:37:37;11.90;99.90
26691;DHT22;14307;51.718;8.938;2022-10-16T02:40:05;12.00;99.90
26691;DHT22;14307;51.718;8.938;2022-10-16T02:42:36;11.90;99.90
26691;DHT22;14307;51.718;8.938;2022-10-16T02:45:04;11.90;99.90
26691;DHT22;14307;51.718;8.938;2022-10-16T02:47:31;11.80;99.90
26691;DHT22;14307;51.718;8.938;2022-10-16T02:49:58;11.80;99.90
26691;DHT22;14307;51.718;8.938;2022-10-16T02:52:25;11.90;99.90
26691;DHT22;14307;51.718;8.938;2022-10-16T02:54:52;11.90;99.90
26691;DHT22;14307;51.718;8.938;2022-10-16T02:57:20;11.90;99.90
26691;DHT22;14307;51.718;8.938;2022-10-16T02:59:47;11.80;99.90
26691;DHT22;14307;51.718;8.938;2022-10-16T03:02:13;11.90;99.90
26691;DHT22;14307;51.718;8.938;2022-10-16T03:04:40;11.90;99.90
26691;DHT22;14307;51.718;8.938;2022-10-16T03:07:07;11.90;99.90
26691;DHT22;14307;51.718;8.938;2022-10-16T03:09:34;11.80;99.90
26691;DHT22;14307;51.718;8.938;2022-10-16T03:12:00;11.90;99.90
26691;DHT22;14307;51.718;8.938;2022-10-16T03:14:27;11.80;99.90
26691;DHT22;14307;51.718;8.938;2022-10-16T03:16:59;11.80;99.90
26691;DHT22;14307;51.718;8.938;2022-10-16T03:19:25;11.80;99.90
26691;DHT22;14307;51.718;8.938;2022-10-16T03:21:52;11.80;99.90
26691;DHT22;14307;51.718;8.938;2022-10-16T03:24:19;11.80;99.90
26691;DHT22;14307;51.718;8.938;2022-10-16T03:26:46;11.80;99.90
26691;DHT22;14307;51.718;8.938;2022-10-16T03:29:12;11.90;99.90
26691;DHT22;14307;51.718;8.938;2022-10-16T03:31:39;11.80;99.90
26691;DHT22;14307;51.718;8.938;2022-10-16T03:34:06;11.80;99.90
26691;DHT22;14307;51.718;8.938;2022-10-16T03:36:32;11.80;99.90
26691;DHT22;14307;51.718;8.938;2022-10-16T03:38:59;11.80;99.90
26691;DHT22;14307;51.718;8.938;2022-10-16T03:41:26;11.80;99.90
26691;DHT22;14307;51.718;8.938;2022-10-16T03:43:53;11.80;99.90
26691;DHT22;14307;51.718;8.938;2022-10-16T03:46:19;11.80;99.90
26691;DHT22;14307;51.718;8.938;2022-10-16T03:48:46;11.80;99.90
26691;DHT22;14307;51.718;8.938;2022-10-16T03:51:13;11.80;99.90
26691;DHT22;14307;51.718;8.938;2022-10-16T03:53:39;11.80;99.90
26691;DHT22;14307;51.718;8.938;2022-10-16T03:56:06;11.80;99.90
26691;DHT22;14307;51.718;8.938;2022-10-16T03:58:33;11.80;99.90
26691;DHT22;14307;51.718;8.938;2022-10-16T04:01:00;11.90;99.90
26691;DHT22;14307;51.718;8.938;2022-10-16T04:03:27;11.90;99.90
26691;DHT22;14307;51.718;8.938;2022-10-16T04:05:54;11.80;99.90
26691;DHT22;14307;51.718;8.938;2022-10-16T04:08:20;11.80;99.90
26691;DHT22;14307;51.718;8.938;2022-10-16T04:10:47;11.80;99.90
26691;DHT22;14307;51.718;8.938;2022-10-16T04:13:15;11.80;99.90
26691;DHT22;14307;51.718;8.938;2022-10-16T04:15:42;11.80;99.90
26691;DHT22;14307;51.718;8.938;2022-10-16T04:18:08;11.90;99.90
26691;DHT22;14307;51.718;8.938;2022-10-16T04:20:35;11.90;99.90
26691;DHT22;14307;51.718;8.938;2022-10-16T04:23:02;11.90;99.90
26691;DHT22;14307;51.718;8.938;2022-10-16T04:25:30;11.90;99.90
26691;DHT22;14307;51.718;8.938;2022-10-16T04:27:57;11.80;99.90
26691;DHT22;14307;51.718;8.938;2022-10-16T04:30:23;11.90;99.90
26691;DHT22;14307;51.718;8.938;2022-10-16T04:32:51;11.90;99.90
26691;DHT22;14307;51.718;8.938;2022-10-16T04:35:20;11.80;99.90
26691;DHT22;14307;51.718;8.938;2022-10-16T04:37:47;11.90;99.90
26691;DHT22;14307;51.718;8.938;2022-10-16T04:40:14;11.90;99.90
26691;DHT22;14307;51.718;8.938;2022-10-16T04:42:41;11.90;99.90
26691;DHT22;14307;51.718;8.938;2022-10-16T04:45:08;11.90;99.90
26691;DHT22;14307;51.718;8.938;2022-10-16T04:47:40;11.90;99.90
26691;DHT22;14307;51.718;8.938;2022-10-16T04:50:07;11.90;99.90
26691;DHT22;14307;51.718;8.938;2022-10-16T04:52:34;12.00;99.90
26691;DHT22;14307;51.718;8.938;2022-10-16T04:55:06;12.00;99.90
26691;DHT22;14307;51.718;8.938;2022-10-16T04:57:33;12.00;99.90
26691;DHT22;14307;51.718;8.938;2022-10-16T05:00:00;12.00;99.90
26691;DHT22;14307;51.718;8.938;2022-10-16T05:02:27;12.00;99.90
26691;DHT22;14307;51.718;8.938;2022-10-16T05:04:54;12.00;99.90
26691;DHT22;14307;51.718;8.938;2022-10-16T05:07:20;12.00;99.90
26691;DHT22;14307;51.718;8.938;2022-10-16T05:09:47;11.90;99.90
26691;DHT22;14307;51.718;8.938;2022-10-16T05:12:14;11.90;99.90
26691;DHT22;14307;51.718;8.938;2022-10-16T05:14:40;12.00;99.90
26691;DHT22;14307;51.718;8.938;2022-10-16T05:17:07;12.10;99.90
26691;DHT22;14307;51.718;8.938;2022-10-16T05:19:34;12.10;99.90
26691;DHT22;14307;51.718;8.938;2022-10-16T05:22:01;12.10;99.90
26691;DHT22;14307;51.718;8.938;2022-10-16T05:24:28;12.00;99.90
26691;DHT22;14307;51.718;8.938;2022-10-16T05:26:54;12.00;99.90
26691;DHT22;14307;51.718;8.938;2022-10-16T05:29:21;12.00;99.90
26691;DHT22;14307;51.718;8.938;2022-10-16T05:31:52;12.00;99.90
26691;DHT22;14307;51.718;8.938;2022-10-16T05:34:20;11.90;99.90
26691;DHT22;14307;51.718;8.938;2022-10-16T05:36:47;11.90;99.90
26691;DHT22;14307;51.718;8.938;2022-10-16T05:39:15;11.90;99.90
26691;DHT22;14307;51.718;8.938;2022-10-16T05:41:42;11.90;99.90
26691;DHT22;14307;51.718;8.938;2022-10-16T05:44:10;11.90;99.90
26691;DHT22;14307;51.718;8.938;2022-10-16T05:46:37;11.90;99.90
26691;DHT22;14307;51.718;8.938;2022-10-16T05:49:03;11.90;99.90
26691;DHT22;14307;51.718;8.938;2022-10-16T05:51:30;11.90;99.90
26691;DHT22;14307;51.718;8.938;2022-10-16T05:53:57;11.90;99.90
26691;DHT22;14307;51.718;8.938;2022-10-16T05:56:23;11.90;99.90
26691;DHT22;14307;51.718;8.938;2022-10-16T05:58:50;11.80;99.90
26691;DHT22;14307;51.718;8.938;2022-10-16T06:01:18;11.80;99.90
26691;DHT22;14307;51.718;8.938;2022-10-16T06:03:45;11.80;99.90
26691;DHT22;14307;51.718;8.938;2022-10-16T06:06:16;11.80;99.90
26691;DHT22;14307;51.718;8.938;2022-10-16T06:08:45;11.80;99.90
26691;DHT22;14307;51.718;8.938;2022-10-16T06:11:15;11.80;99.90
26691;DHT22;14307;51.718;8.938;2022-10-16T06:13:42;11.80;99.90
26691;DHT22;14307;51.718;8.938;2022-10-16T06:16:10;11.90;99.90
26691;DHT22;14307;51.718;8.938;2022-10-16T06:18:37;11.90;99.90
26691;DHT22;14307;51.718;8.938;2022-10-16T06:21:18;11.90;99.90
26691;DHT22;14307;51.718;8.938;2022-10-16T06:23:45;11.90;99.90
26691;DHT22;14307;51.718;8.938;2022-10-16T06:26:17;11.90;99.90
26691;DHT22;14307;51.718;8.938;2022-10-16T06:28:44;11.90;99.90
26691;DHT22;14307;51.718;8.938;2022-10-16T06:31:11;12.00;99.90
26691;DHT22;14307;51.718;8.938;2022-10-16T06:33:39;12.00;99.90
26691;DHT22;14307;51.718;8.938;2022-10-16T06:36:14;12.10;99.90
26691;DHT22;14307;51.718;8.938;2022-10-16T06:38:42;12.10;99.90
26691;DHT22;14307;51.718;8.938;2022-10-16T06:41:11;12.10;99.90
26691;DHT22;14307;51.718;8.938;2022-10-16T06:43:39;12.10;99.90
26691;DHT22;14307;51.718;8.938;2022-10-16T06:46:07;12.20;99.90
26691;DHT22;14307;51.718;8.938;2022-10-16T06:48:39;12.20;99.90
26691;DHT22;14307;51.718;8.938;2022-10-16T06:51:10;12.30;99.90
26691;DHT22;14307;51.718;8.938;2022-10-16T06:53:41;12.30;99.90
26691;DHT22;14307;51.718;8.938;2022-10-16T06:56:28;12.30;99.90
26691;DHT22;14307;51.718;8.938;2022-10-16T06:58:57;12.40;99.90
26691;DHT22;14307;51.718;8.938;2022-10-16T07:01:24;12.40;99.90
26691;DHT22;14307;51.718;8.938;2022-10-16T07:03:51;12.50;99.90
26691;DHT22;14307;51.718;8.938;2022-10-16T07:06:21;12.50;99.90
26691;DHT22;14307;51.718;8.938;2022-10-16T07:08:48;12.60;99.90
26691;DHT22;14307;51.718;8.938;2022-10-16T07:11:17;12.60;99.90
26691;DHT22;14307;51.718;8.938;2022-10-16T07:13:45;12.60;99.90
26691;DHT22;14307;51.718;8.938;2022-10-16T07:16:22;12.70;99.90
26691;DHT22;14307;51.718;8.938;2022-10-16T07:18:49;12.80;99.90
26691;DHT22;14307;51.718;8.938;2022-10-16T07:21:21;12.80;99.90
26691;DHT22;14307;51.718;8.938;2022-10-16T07:23:53;12.90;99.90
26691;DHT22;14307;51.718;8.938;2022-10-16T07:26:19;13.00;99.90
26691;DHT22;14307;51.718;8.938;2022-10-16T07:28:46;13.10;99.90
26691;DHT22;14307;51.718;8.938;2022-10-16T07:31:14;13.20;99.90
26691;DHT22;14307;51.718;8.938;2022-10-16T07:33:43;13.30;99.90
26691;DHT22;14307;51.718;8.938;2022-10-16T07:36:12;13.30;99.90
26691;DHT22;14307;51.718;8.938;2022-10-16T07:38:42;13.40;99.90
26691;DHT22;14307;51.718;8.938;2022-10-16T07:41:12;13.50;99.90
26691;DHT22;14307;51.718;8.938;2022-10-16T07:43:39;13.70;99.90
26691;DHT22;14307;51.718;8.938;2022-10-16T07:46:06;13.90;99.90
26691;DHT22;14307;51.718;8.938;2022-10-16T07:48:34;14.00;99.90
26691;DHT22;14307;51.718;8.938;2022-10-16T07:51:02;14.20;99.90
26691;DHT22;14307;51.718;8.938;2022-10-16T07:53:29;14.30;99.90
26691;DHT22;14307;51.718;8.938;2022-10-16T07:56:01;14.40;99.90
26691;DHT22;14307;51.718;8.938;2022-10-16T07:58:29;14.40;99.90
26691;DHT22;14307;51.718;8.938;2022-10-16T08:00:57;14.50;99.90
26691;DHT22;14307;51.718;8.938;2022-10-16T08:03:24;14.50;99.90
26691;DHT22;14307;51.718;8.938;2022-10-16T08:05:51;14.60;99.90
26691;DHT22;14307;51.718;8.938;2022-10-16T08:08:18;14.80;99.90
26691;DHT22;14307;51.718;8.938;2022-10-16T08:10:45;15.00;99.90
26691;DHT22;14307;51.718;8.938;2022-10-16T08:13:12;15.20;99.90
26691;DHT22;14307;51.718;8.938;2022-10-16T08:15:42;15.30;99.90
26691;DHT22;14307;51.718;8.938;2022-10-16T08:18:10;15.10;99.90
26691;DHT22;14307;51.718;8.938;2022-10-16T08:20:38;15.00;99.90
26691;DHT22;14307;51.718;8.938;2022-10-16T08:23:04;15.10;99.90
26691;DHT22;14307;51.718;8.938;2022-10-16T08:25:33;15.30;99.90
26691;DHT22;14307;51.718;8.938;2022-10-16T08:28:00;15.50;99.90
26691;DHT22;14307;51.718;8.938;2022-10-16T08:30:29;15.60;99.90
26691;DHT22;14307;51.718;8.938;2022-10-16T08:32:55;15.70;99.90
26691;DHT22;14307;51.718;8.938;2022-10-16T08:35:22;15.60;99.90
26691;DHT22;14307;51.718;8.938;2022-10-16T08:37:49;15.40;99.90
26691;DHT22;14307;51.718;8.938;2022-10-16T08:40:27;15.30;99.90
26691;DHT22;14307;51.718;8.938;2022-10-16T08:50:57;15.60;99.90
26691;DHT22;14307;51.718;8.938;2022-10-16T08:53:29;15.70;99.90
26691;DHT22;14307;51.718;8.938;2022-10-16T08:55:57;15.90;99.90
26691;DHT22;14307;51.718;8.938;2022-10-16T08:58:29;16.00;99.90
26691;DHT22;14307;51.718;8.938;2022-10-16T09:01:00;16.20;99.90
26691;DHT22;14307;51.718;8.938;2022-10-16T09:09:38;16.60;99.90
26691;DHT22;14307;51.718;8.938;2022-10-16T09:15:01;16.80;99.90
26691;DHT22;14307;51.718;8.938;2022-10-16T09:23:12;17.50;99.90
26691;DHT22;14307;51.718;8.938;2022-10-16T09:25:42;17.40;99.90
26691;DHT22;14307;51.718;8.938;2022-10-16T09:28:09;17.30;99.90
26691;DHT22;14307;51.718;8.938;2022-10-16T09:30:37;17.40;99.90
26691;DHT22;14307;51.718;8.938;2022-10-16T09:33:06;17.50;99.90
26691;DHT22;14307;51.718;8.938;2022-10-16T09:35:45;17.20;99.90
26691;DHT22;14307;51.718;8.938;2022-10-16T09:38:32;17.40;99.90
26691;DHT22;14307;51.718;8.938;2022-10-16T09:41:02;17.40;99.90
26691;DHT22;14307;51.718;8.938;2022-10-16T09:43:41;17.30;99.90
26691;DHT22;14307;51.718;8.938;2022-10-16T09:49:00;17.20;99.90
26691;DHT22;14307;51.718;8.938;2022-10-16T09:56:42;17.00;99.90
26691;DHT22;14307;51.718;8.938;2022-10-16T09:59:16;16.80;99.90
26691;DHT22;14307;51.718;8.938;2022-10-16T10:01:48;16.80;99.90
26691;DHT22;14307;51.718;8.938;2022-10-16T10:04:22;17.00;99.90
26691;DHT22;14307;51.718;8.938;2022-10-16T10:06:51;17.20;99.90
26691;DHT22;14307;51.718;8.938;2022-10-16T10:09:26;17.20;99.90
26691;DHT22;14307;51.718;8.938;2022-10-16T10:11:55;17.10;99.90
26691;DHT22;14307;51.718;8.938;2022-10-16T10:14:24;17.00;99.90
26691;DHT22;14307;51.718;8.938;2022-10-16T10:33:27;16.90;99.90
26691;DHT22;14307;51.718;8.938;2022-10-16T10:36:20;16.60;99.90
26691;DHT22;14307;51.718;8.938;2022-10-16T10:39:15;16.30;99.90
26691;DHT22;14307;51.718;8.938;2022-10-16T10:47:13;16.40;99.90
26691;DHT22;14307;51.718;8.938;2022-10-16T10:50:01;16.80;99.90
26691;DHT22;14307;51.718;8.938;2022-10-16T10:52:58;16.90;99.90
26691;DHT22;14307;51.718;8.938;2022-10-16T10:56:05;17.00;99.90
26691;DHT22;14307;51.718;8.938;2022-10-16T10:59:03;16.80;99.90
26691;DHT22;14307;51.718;8.938;2022-10-16T11:02:00;16.60;99.90
26691;DHT22;14307;51.718;8.938;2022-10-16T11:09:57;16.30;99.90
26691;DHT22;14307;51.718;8.938;2022-10-16T11:12:35;16.80;99.90
26691;DHT22;14307;51.718;8.938;2022-10-16T11:15:13;17.10;99.90
26691;DHT22;14307;51.718;8.938;2022-10-16T11:17:51;17.00;99.90
26691;DHT22;14307;51.718;8.938;2022-10-16T11:20:42;16.90;99.90
26691;DHT22;14307;51.718;8.938;2022-10-16T11:23:18;17.00;99.90
26691;DHT22;14307;51.718;8.938;2022-10-16T11:25:48;17.40;99.90
26691;DHT22;14307;51.718;8.938;2022-10-16T11:28:23;17.60;99.90
26691;DHT22;14307;51.718;8.938;2022-10-16T11:31:11;17.90;99.90
26691;DHT22;14307;51.718;8.938;2022-10-16T11:36:23;18.30;99.90
26691;DHT22;14307;51.718;8.938;2022-10-16T11:44:41;18.80;99.90
26691;DHT22;14307;51.718;8.938;2022-10-16T11:50:50;19.00;99.90
26691;DHT22;14307;51.718;8.938;2022-10-16T11:53:40;19.00;99.90
26691;DHT22;14307;51.718;8.938;2022-10-16T11:56:15;19.00;99.90
26691;DHT22;14307;51.718;8.938;2022-10-16T11:58:57;19.20;99.90
26691;DHT22;14307;51.718;8.938;2022-10-16T12:01:42;19.40;99.90
26691;DHT22;14307;51.718;8.938;2022-10-16T12:04:15;19.30;99.90
26691;DHT22;14307;51.718;8.938;2022-10-16T12:06:49;19.10;99.90
26691;DHT22;14307;51.718;8.938;2022-10-16T12:09:32;19.00;99.90
26691;DHT22;14307;51.718;8.938;2022-10-16T12:11:59;19.10;99.90
26691;DHT22;14307;51.718;8.938;2022-10-16T12:17:01;19.30;99.90
26691;DHT22;14307;51.718;8.938;2022-10-16T12:19:29;19.30;99.90
26691;DHT22;14307;51.718;8.938;2022-10-16T12:21:58;19.40;99.90
26691;DHT22;14307;51.718;8.938;2022-10-16T12:24:37;19.40;99.90
26691;DHT22;14307;51.718;8.938;2022-10-16T12:27:19;19.40;99.90
26691;DHT22;14307;51.718;8.938;2022-10-16T12:29:46;19.50;99.90
26691;DHT22;14307;51.718;8.938;2022-10-16T12:32:40;19.60;99.90
26691;DHT22;14307;51.718;8.938;2022-10-16T12:35:24;19.70;99.90
26691;DHT22;14307;51.718;8.938;2022-10-16T12:37:51;19.70;99.90
26691;DHT22;14307;51.718;8.938;2022-10-16T12:40:30;19.70;99.90
26691;DHT22;14307;51.718;8.938;2022-10-16T12:42:58;19.50;99.90
26691;DHT22;14307;51.718;8.938;2022-10-16T12:47:59;19.60;99.90
26691;DHT22;14307;51.718;8.938;2022-10-16T12:50:37;19.60;99.90
26691;DHT22;14307;51.718;8.938;2022-10-16T12:53:37;19.50;99.90
26691;DHT22;14307;51.718;8.938;2022-10-16T12:59:09;19.50;99.90
26691;DHT22;14307;51.718;8.938;2022-10-16T13:01:56;19.30;99.90
26691;DHT22;14307;51.718;8.938;2022-10-16T13:07:27;19.50;99.90
26691;DHT22;14307;51.718;8.938;2022-10-16T13:13:19;19.80;99.90
26691;DHT22;14307;51.718;8.938;2022-10-16T13:20:59;19.00;99.90
26691;DHT22;14307;51.718;8.938;2022-10-16T13:28:38;19.50;99.90
26691;DHT22;14307;51.718;8.938;2022-10-16T13:31:05;19.40;99.90
26691;DHT22;14307;51.718;8.938;2022-10-16T13:33:42;19.20;99.90
26691;DHT22;14307;51.718;8.938;2022-10-16T13:38:46;18.80;99.90
26691;DHT22;14307;51.718;8.938;2022-10-16T13:43:52;18.80;99.90
26691;DHT22;14307;51.718;8.938;2022-10-16T13:46:24;18.80;99.90
26691;DHT22;14307;51.718;8.938;2022-10-16T13:49:10;19.20;99.90
26691;DHT22;14307;51.718;8.938;2022-10-16T13:51:37;19.50;99.90
26691;DHT22;14307;51.718;8.938;2022-10-16T13:54:04;19.70;99.90
26691;DHT22;14307;51.718;8.938;2022-10-16T13:56:32;19.70;99.90
26691;DHT22;14307;51.718;8.938;2022-10-16T13:59:04;19.90;99.90
26691;DHT22;14307;51.718;8.938;2022-10-16T14:01:41;19.80;99.90
26691;DHT22;14307;51.718;8.938;2022-10-16T14:04:11;19.70;99.90
26691;DHT22;14307;51.718;8.938;2022-10-16T14:06:45;19.60;99.90
26691;DHT22;14307;51.718;8.938;2022-10-16T14:09:27;19.70;99.90
26691;DHT22;14307;51.718;8.938;2022-10-16T14:12:02;19.70;99.90
26691;DHT22;14307;51.718;8.938;2022-10-16T14:14:50;19.70;99.90
26691;DHT22;14307;51.718;8.938;2022-10-16T14:17:33;19.50;99.90
26691;DHT22;14307;51.718;8.938;2022-10-16T14:20:03;19.40;99.90
26691;DHT22;14307;51.718;8.938;2022-10-16T14:22:38;19.20;99.90
26691;DHT22;14307;51.718;8.938;2022-10-16T14:25:23;19.20;99.90
26691;DHT22;14307;51.718;8.938;2022-10-16T14:30:36;18.80;99.90
26691;DHT22;14307;51.718;8.938;2022-10-16T14:33:05;18.80;99.90
26691;DHT22;14307;51.718;8.938;2022-10-16T14:35:34;18.70;99.90
26691;DHT22;14307;51.718;8.938;2022-10-16T14:38:03;18.70;99.90
26691;DHT22;14307;51.718;8.938;2022-10-16T14:40:35;18.70;99.90
26691;DHT22;14307;51.718;8.938;2022-10-16T14:43:04;18.60;99.90
26691;DHT22;14307;51.718;8.938;2022-10-16T14:45:34;18.60;99.90
26691;DHT22;14307;51.718;8.938;2022-10-16T14:48:13;18.60;99.90
26691;DHT22;14307;51.718;8.938;2022-10-16T14:50:45;18.60;99.90
26691;DHT22;14307;51.718;8.938;2022-10-16T14:53:12;18.40;99.90
26691;DHT22;14307;51.718;8.938;2022-10-16T14:55:40;18.40;99.90
26691;DHT22;14307;51.718;8.938;2022-10-16T14:58:17;18.40;99.90
26691;DHT22;14307;51.718;8.938;2022-10-16T15:00:45;18.30;99.90
26691;DHT22;14307;51.718;8.938;2022-10-16T15:03:13;18.30;99.90
26691;DHT22;14307;51.718;8.938;2022-10-16T15:05:40;18.40;99.90
26691;DHT22;14307;51.718;8.938;2022-10-16T15:08:06;18.40;99.90
26691;DHT22;14307;51.718;8.938;2022-10-16T15:10:38;18.30;99.90
26691;DHT22;14307;51.718;8.938;2022-10-16T15:13:06;18.20;99.90
26691;DHT22;14307;51.718;8.938;2022-10-16T15:15:35;18.00;99.90
26691;DHT22;14307;51.718;8.938;2022-10-16T15:18:03;17.90;99.90
26691;DHT22;14307;51.718;8.938;2022-10-16T15:20:33;17.80;99.90
26691;DHT22;14307;51.718;8.938;2022-10-16T15:23:06;17.70;99.90
26691;DHT22;14307;51.718;8.938;2022-10-16T15:25:39;17.70;99.90
26691;DHT22;14307;51.718;8.938;2022-10-16T15:28:09;17.70;99.90
26691;DHT22;14307;51.718;8.938;2022-10-16T15:30:37;17.70;99.90
26691;DHT22;14307;51.718;8.938;2022-10-16T15:33:05;17.70;99.90
26691;DHT22;14307;51.718;8.938;2022-10-16T15:35:35;17.70;99.90
26691;DHT22;14307;51.718;8.938;2022-10-16T15:38:03;17.80;99.90
26691;DHT22;14307;51.718;8.938;2022-10-16T15:40:29;17.80;99.90
26691;DHT22;14307;51.718;8.938;2022-10-16T15:42:56;17.80;99.90
26691;DHT22;14307;51.718;8.938;2022-10-16T15:45:23;17.80;99.90
26691;DHT22;14307;51.718;8.938;2022-10-16T15:47:50;17.70;99.90
26691;DHT22;14307;51.718;8.938;2022-10-16T15:50:17;17.60;99.90
26691;DHT22;14307;51.718;8.938;2022-10-16T15:52:44;17.30;99.90
26691;DHT22;14307;51.718;8.938;2022-10-16T15:55:12;17.20;99.90
26691;DHT22;14307;51.718;8.938;2022-10-16T15:57:40;17.20;99.90
26691;DHT22;14307;51.718;8.938;2022-10-16T16:00:15;17.10;99.90
26691;DHT22;14307;51.718;8.938;2022-10-16T16:02:42;16.80;99.90
26691;DHT22;14307;51.718;8.938;2022-10-16T16:05:10;16.70;99.90
26691;DHT22;14307;51.718;8.938;2022-10-16T16:07:39;16.70;99.90
26691;DHT22;14307;51.718;8.938;2022-10-16T16:10:08;16.50;99.90
26691;DHT22;14307;51.718;8.938;2022-10-16T16:12:36;16.30;99.90
26691;DHT22;14307;51.718;8.938;2022-10-16T16:15:07;16.00;99.90
26691;DHT22;14307;51.718;8.938;2022-10-16T16:17:35;15.60;99.90
26691;DHT22;14307;51.718;8.938;2022-10-16T16:20:02;15.30;99.90
26691;DHT22;14307;51.718;8.938;2022-10-16T16:22:30;15.10;99.90
26691;DHT22;14307;51.718;8.938;2022-10-16T16:24:57;15.00;99.90
26691;DHT22;14307;51.718;8.938;2022-10-16T16:27:24;15.00;99.90
26691;DHT22;14307;51.718;8.938;2022-10-16T16:29:52;15.10;99.90
26691;DHT22;14307;51.718;8.938;2022-10-16T16:32:19;15.00;99.90
26691;DHT22;14307;51.718;8.938;2022-10-16T16:34:46;14.80;99.90
26691;DHT22;14307;51.718;8.938;2022-10-16T16:37:13;14.60;99.90
26691;DHT22;14307;51.718;8.938;2022-10-16T16:39:40;14.60;99.90
26691;DHT22;14307;51.718;8.938;2022-10-16T16:42:07;14.70;99.90
26691;DHT22;14307;51.718;8.938;2022-10-16T16:44:34;14.70;99.90
26691;DHT22;14307;51.718;8.938;2022-10-16T16:47:04;14.70;99.90
26691;DHT22;14307;51.718;8.938;2022-10-16T16:49:31;14.70;99.90
26691;DHT22;14307;51.718;8.938;2022-10-16T16:51:58;14.70;99.90
26691;DHT22;14307;51.718;8.938;2022-10-16T16:54:25;14.70;99.90
26691;DHT22;14307;51.718;8.938;2022-10-16T16:56:51;14.70;99.90
26691;DHT22;14307;51.718;8.938;2022-10-16T16:59:20;14.70;99.90
26691;DHT22;14307;51.718;8.938;2022-10-16T17:01:49;14.70;99.90
26691;DHT22;14307;51.718;8.938;2022-10-16T17:04:22;14.70;99.90
26691;DHT22;14307;51.718;8.938;2022-10-16T17:06:48;14.60;99.90
26691;DHT22;14307;51.718;8.938;2022-10-16T17:09:15;14.60;99.90
26691;DHT22;14307;51.718;8.938;2022-10-16T17:11:42;14.50;99.90
26691;DHT22;14307;51.718;8.938;2022-10-16T17:14:11;14.30;99.90
26691;DHT22;14307;51.718;8.938;2022-10-16T17:16:38;14.40;99.90
26691;DHT22;14307;51.718;8.938;2022-10-16T17:19:09;14.50;99.90
26691;DHT22;14307;51.718;8.938;2022-10-16T17:21:36;14.50;99.90
26691;DHT22;14307;51.718;8.938;2022-10-16T17:24:03;14.60;99.90
26691;DHT22;14307;51.718;8.938;2022-10-16T17:26:30;14.50;99.90
26691;DHT22;14307;51.718;8.938;2022-10-16T17:29:00;14.60;99.90
26691;DHT22;14307;51.718;8.938;2022-10-16T17:31:35;14.70;99.90
26691;DHT22;14307;51.718;8.938;2022-10-16T17:34:04;14.60;99.90
26691;DHT22;14307;51.718;8.938;2022-10-16T17:36:33;14.50;99.90
26691;DHT22;14307;51.718;8.938;2022-10-16T17:39:02;14.40;99.90
26691;DHT22;14307;51.718;8.938;2022-10-16T17:41:30;14.30;99.90
26691;DHT22;14307;51.718;8.938;2022-10-16T17:43:58;14.40;99.90
26691;DHT22;14307;51.718;8.938;2022-10-16T17:46:25;14.40;99.90
26691;DHT22;14307;51.718;8.938;2022-10-16T17:48:53;14.40;99.90